createdAt,value
2023-04-27T00:02:07.908Z,102286.47
2023-04-27T00:04:34.533Z,102290.56
2023-04-27T00:07:01.441Z,102296.91
2023-04-27T00:09:27.783Z,102302.84
2023-04-27T00:11:54.671Z,102298.59
2023-04-27T00:14:21.229Z,102301.81
2023-04-27T00:16:48.005Z,102300.00
2023-04-27T00:19:15.379Z,102296.34
2023-04-27T00:21:42.136Z,102299.63
2023-04-27T00:24:08.576Z,102305.19
2023-04-27T00:26:34.919Z,102300.22
2023-04-27T00:29:01.554Z,102305.47
2023-04-27T00:31:28.925Z,102298.06
2023-04-27T00:33:55.418Z,102286.41
2023-04-27T00:36:21.856Z,102293.72
2023-04-27T00:38:48.299Z,102289.94
2023-04-27T00:41:14.723Z,102285.94
2023-04-27T00:43:43.558Z,102291.59
2023-04-27T00:46:11.694Z,102294.22
2023-04-27T00:48:38.173Z,102296.41
2023-04-27T00:51:05.565Z,102293.56
2023-04-27T00:53:32.804Z,102296.06
2023-04-27T00:55:59.267Z,102300.50
2023-04-27T00:58:25.977Z,102292.63
2023-04-27T01:00:52.543Z,102300.34
2023-04-27T01:03:19.190Z,102305.66
2023-04-27T01:05:45.761Z,102295.03
2023-04-27T01:08:12.084Z,102281.94
2023-04-27T01:10:38.791Z,102282.53
2023-04-27T01:13:05.458Z,102287.09
2023-04-27T01:15:31.772Z,102277.19
2023-04-27T01:18:02.076Z,102274.81
2023-04-27T01:20:32.660Z,102282.97
2023-04-27T01:23:02.832Z,102284.41
2023-04-27T01:25:32.505Z,102285.88
2023-04-27T01:28:01.817Z,102285.28
2023-04-27T01:30:28.685Z,102287.78
2023-04-27T01:32:55.080Z,102299.03
2023-04-27T01:35:21.477Z,102296.19
2023-04-27T01:37:47.956Z,102299.19
2023-04-27T01:40:15.247Z,102290.38
2023-04-27T01:42:42.005Z,102282.81
2023-04-27T01:45:12.213Z,102285.28
2023-04-27T01:47:38.998Z,102280.47
2023-04-27T01:50:06.201Z,102270.66
2023-04-27T01:52:35.456Z,102269.28
2023-04-27T01:55:02.129Z,102269.69
2023-04-27T01:57:28.505Z,102272.94
2023-04-27T01:59:56.760Z,102271.91
2023-04-27T02:02:23.309Z,102271.31
2023-04-27T02:04:52.686Z,102270.16
2023-04-27T02:07:19.173Z,102275.00
2023-04-27T02:09:45.551Z,102264.97
2023-04-27T02:12:11.931Z,102271.44
2023-04-27T02:14:41.305Z,102277.69
2023-04-27T02:17:11.346Z,102287.13
2023-04-27T02:19:40.288Z,102282.47
2023-04-27T02:22:09.692Z,102280.88
2023-04-27T02:24:36.598Z,102273.47
2023-04-27T02:27:03.821Z,102266.28
2023-04-27T02:29:33.845Z,102267.72
2023-04-27T02:32:01.219Z,102273.16
2023-04-27T02:34:30.979Z,102264.28
2023-04-27T02:36:57.533Z,102269.53
2023-04-27T02:39:23.957Z,102273.16
2023-04-27T02:41:53.191Z,102269.38
2023-04-27T02:44:23.883Z,102268.78
2023-04-27T02:46:53.760Z,102260.94
2023-04-27T02:49:25.726Z,102258.75
2023-04-27T02:51:56.372Z,102258.38
2023-04-27T02:54:22.923Z,102261.00
2023-04-27T02:56:49.419Z,102247.53
2023-04-27T02:59:16.096Z,102256.41
2023-04-27T03:01:42.850Z,102251.59
2023-04-27T03:04:09.555Z,102252.03
2023-04-27T03:06:36.168Z,102255.88
2023-04-27T03:09:03.699Z,102251.09
2023-04-27T03:11:30.065Z,102258.94
2023-04-27T03:13:56.410Z,102258.31
2023-04-27T03:16:22.803Z,102256.50
2023-04-27T03:18:49.142Z,102261.91
2023-04-27T03:21:16.951Z,102268.72
2023-04-27T03:23:43.284Z,102260.88
2023-04-27T03:26:14.178Z,102268.59
2023-04-27T03:28:41.820Z,102269.00
2023-04-27T03:31:13.567Z,102271.63
2023-04-27T03:33:45.141Z,102270.44
2023-04-27T03:36:12.430Z,102267.81
2023-04-27T03:38:38.777Z,102270.25
2023-04-27T03:41:05.224Z,102267.19
2023-04-27T03:43:31.570Z,102265.97
2023-04-27T03:45:58.062Z,102267.56
2023-04-27T03:48:24.535Z,102265.38
2023-04-27T03:50:51.678Z,102269.84
2023-04-27T03:53:18.227Z,102267.06
2023-04-27T03:55:45.171Z,102275.94
2023-04-27T03:58:12.003Z,102271.91
2023-04-27T04:00:39.131Z,102269.53
2023-04-27T04:03:06.832Z,102272.94
2023-04-27T04:05:33.581Z,102272.56
2023-04-27T04:08:00.779Z,102265.94
2023-04-27T04:10:27.145Z,102267.75
2023-04-27T04:12:53.512Z,102277.19
2023-04-27T04:15:20.309Z,102277.41
2023-04-27T04:17:47.482Z,102276.03
2023-04-27T04:20:13.943Z,102276.44
2023-04-27T04:22:40.304Z,102284.88
2023-04-27T04:25:07.320Z,102281.03
2023-04-27T04:27:33.666Z,102287.47
2023-04-27T04:30:06.347Z,102290.25
2023-04-27T04:32:38.938Z,102295.72
2023-04-27T04:35:12.370Z,102294.47
2023-04-27T04:37:46.798Z,102297.69
2023-04-27T04:40:13.936Z,102289.63
2023-04-27T04:42:40.447Z,102293.44
2023-04-27T04:45:07.505Z,102298.22
2023-04-27T04:47:34.168Z,102301.44
2023-04-27T04:50:00.963Z,102301.81
2023-04-27T04:52:27.355Z,102300.38
2023-04-27T04:54:57.690Z,102306.34
2023-04-27T04:57:26.109Z,102301.28
2023-04-27T04:59:54.122Z,102312.56
2023-04-27T05:02:21.163Z,102302.31
2023-04-27T05:04:47.725Z,102306.53
2023-04-27T05:07:23.283Z,102304.53
2023-04-27T05:09:52.866Z,102302.25
2023-04-27T05:12:22.846Z,102303.66
2023-04-27T05:14:54.888Z,102304.25
2023-04-27T05:17:21.410Z,102302.00
2023-04-27T05:19:47.816Z,102295.31
2023-04-27T05:22:14.139Z,102307.75
2023-04-27T05:24:40.848Z,102294.19
2023-04-27T05:27:07.404Z,102305.16
2023-04-27T05:29:33.867Z,102302.28
2023-04-27T05:32:01.903Z,102305.63
2023-04-27T05:34:31.067Z,102314.38
2023-04-27T05:36:59.590Z,102315.31
2023-04-27T05:39:28.546Z,102321.66
2023-04-27T05:41:58.975Z,102311.47
2023-04-27T05:44:30.620Z,102313.38
2023-04-27T05:46:57.519Z,102314.69
2023-04-27T05:49:28.035Z,102312.53
2023-04-27T05:51:56.035Z,102313.63
2023-04-27T05:54:25.495Z,102309.19
2023-04-27T05:56:52.233Z,102303.00
2023-04-27T05:59:18.657Z,102307.34
2023-04-27T06:01:44.976Z,102297.59
2023-04-27T06:04:11.375Z,102305.44
2023-04-27T06:06:38.222Z,102299.50
2023-04-27T06:09:05.033Z,102299.25
2023-04-27T06:11:31.362Z,102305.44
2023-04-27T06:13:57.735Z,102301.69
2023-04-27T06:16:24.234Z,102300.81
2023-04-27T06:18:56.070Z,102299.75
2023-04-27T06:21:24.981Z,102299.38
2023-04-27T06:23:55.001Z,102296.03
2023-04-27T06:26:21.390Z,102299.03
2023-04-27T06:28:47.727Z,102295.00
2023-04-27T06:31:14.153Z,102295.44
2023-04-27T06:33:41.250Z,102291.03
2023-04-27T06:36:07.884Z,102289.13
2023-04-27T06:38:34.228Z,102287.59
2023-04-27T06:41:00.721Z,102291.66
2023-04-27T06:43:27.099Z,102293.00
2023-04-27T06:45:53.494Z,102275.88
2023-04-27T06:48:20.179Z,102272.69
2023-04-27T06:50:48.952Z,102269.41
2023-04-27T06:53:17.349Z,102260.72
2023-04-27T06:55:45.578Z,102256.91
2023-04-27T06:58:13.237Z,102269.53
2023-04-27T07:00:39.621Z,102268.28
2023-04-27T07:03:07.958Z,102269.72
2023-04-27T07:05:34.911Z,102266.16
2023-04-27T07:08:05.193Z,102282.94
2023-04-27T07:10:33.520Z,102281.06
2023-04-27T07:13:00.005Z,102286.16
2023-04-27T07:15:26.670Z,102285.16
2023-04-27T07:17:54.101Z,102283.38
2023-04-27T07:20:20.556Z,102288.38
2023-04-27T07:22:46.940Z,102290.78
2023-04-27T07:25:13.572Z,102290.69
2023-04-27T07:27:41.495Z,102292.47
2023-04-27T07:30:11.142Z,102286.97
2023-04-27T07:32:40.240Z,102287.72
2023-04-27T07:35:07.003Z,102289.03
2023-04-27T07:37:33.528Z,102281.34
2023-04-27T07:39:59.873Z,102278.13
2023-04-27T07:42:26.292Z,102277.84
2023-04-27T07:44:52.982Z,102282.88
2023-04-27T07:47:19.396Z,102282.13
2023-04-27T07:49:48.942Z,102274.41
2023-04-27T07:52:15.803Z,102278.41
2023-04-27T07:54:47.056Z,102288.41
2023-04-27T07:57:13.414Z,102287.56
2023-04-27T07:59:40.158Z,102288.25
2023-04-27T08:02:17.743Z,102280.69
2023-04-27T08:04:45.860Z,102286.28
2023-04-27T08:07:12.899Z,102277.53
2023-04-27T08:09:39.496Z,102275.41
2023-04-27T08:12:05.982Z,102289.22
2023-04-27T08:14:34.830Z,102283.34
2023-04-27T08:17:01.227Z,102295.22
2023-04-27T08:19:27.787Z,102290.59
2023-04-27T08:21:54.114Z,102294.00
2023-04-27T08:24:21.061Z,102288.28
2023-04-27T08:26:48.018Z,102293.25
2023-04-27T08:29:26.959Z,102290.06
2023-04-27T08:31:56.459Z,102295.19
2023-04-27T08:34:23.398Z,102288.91
2023-04-27T08:36:50.086Z,102289.38
2023-04-27T08:39:18.019Z,102282.13
2023-04-27T08:41:44.581Z,102271.59
2023-04-27T08:44:11.054Z,102272.72
2023-04-27T08:46:38.228Z,102285.69
2023-04-27T08:49:05.798Z,102282.31
2023-04-27T08:51:32.933Z,102273.88
2023-04-27T08:53:59.685Z,102276.13
2023-04-27T08:56:28.285Z,102284.34
2023-04-27T08:58:56.348Z,102271.59
2023-04-27T09:01:25.073Z,102278.44
2023-04-27T09:03:59.827Z,102271.09
2023-04-27T09:06:36.059Z,102280.13
2023-04-27T09:09:03.651Z,102282.31
2023-04-27T09:11:36.575Z,102279.09
2023-04-27T09:14:15.546Z,102280.00
2023-04-27T09:16:42.564Z,102275.41
2023-04-27T09:19:09.449Z,102271.88
2023-04-27T09:21:35.772Z,102273.31
2023-04-27T09:24:13.030Z,102272.03
2023-04-27T09:26:39.926Z,102266.19
2023-04-27T09:29:06.272Z,102270.38
2023-04-27T09:31:34.020Z,102263.97
2023-04-27T09:34:00.626Z,102258.19
2023-04-27T09:36:33.360Z,102260.00
2023-04-27T09:39:06.662Z,102251.78
2023-04-27T09:41:33.294Z,102254.94
2023-04-27T09:44:00.415Z,102257.94
2023-04-27T09:46:28.890Z,102248.06
2023-04-27T09:48:56.485Z,102253.75
2023-04-27T09:51:22.818Z,102250.44
2023-04-27T09:53:52.707Z,102254.88
2023-04-27T09:56:41.637Z,102247.78
2023-04-27T09:59:29.541Z,102244.88
2023-04-27T10:02:00.128Z,102241.53
2023-04-27T10:04:54.240Z,102254.88
2023-04-27T10:07:24.253Z,102239.59
2023-04-27T10:09:51.990Z,102239.50
2023-04-27T10:12:36.855Z,102249.38
2023-04-27T10:15:15.278Z,102243.25
2023-04-27T10:17:58.611Z,102239.50
2023-04-27T10:20:33.151Z,102244.44
2023-04-27T10:23:00.795Z,102248.00
2023-04-27T10:25:29.622Z,102251.97
2023-04-27T10:27:59.345Z,102245.44
2023-04-27T10:30:31.284Z,102244.84
2023-04-27T10:33:01.038Z,102239.50
2023-04-27T10:35:36.643Z,102241.78
2023-04-27T10:38:11.044Z,102239.09
2023-04-27T10:40:38.758Z,102239.00
2023-04-27T10:43:16.047Z,102238.78
2023-04-27T10:45:43.595Z,102239.88
2023-04-27T10:48:13.191Z,102239.28
2023-04-27T10:50:41.410Z,102244.97
2023-04-27T10:53:08.488Z,102235.25
2023-04-27T10:55:35.997Z,102238.06
2023-04-27T10:58:03.799Z,102239.06
2023-04-27T11:00:36.594Z,102230.75
2023-04-27T11:03:34.741Z,102233.31
2023-04-27T11:06:05.859Z,102227.22
2023-04-27T11:08:36.615Z,102218.47
2023-04-27T11:11:03.746Z,102215.44
2023-04-27T11:13:30.855Z,102214.28
2023-04-27T11:15:59.256Z,102210.06
2023-04-27T11:18:29.388Z,102204.47
2023-04-27T11:21:08.486Z,102205.03
2023-04-27T11:23:37.974Z,102195.75
2023-04-27T11:26:18.548Z,102191.91
2023-04-27T11:29:12.276Z,102195.97
2023-04-27T11:31:48.861Z,102181.13
2023-04-27T11:34:17.295Z,102185.06
2023-04-27T11:36:43.916Z,102178.47
2023-04-27T11:39:19.600Z,102180.25
2023-04-27T11:41:46.437Z,102180.66
2023-04-27T11:44:13.076Z,102179.72
2023-04-27T11:46:41.172Z,102180.19
2023-04-27T11:49:09.822Z,102179.25
2023-04-27T11:51:36.356Z,102180.03
2023-04-27T11:54:05.946Z,102176.56
2023-04-27T11:56:40.546Z,102181.13
2023-04-27T11:59:21.664Z,102175.13
2023-04-27T12:01:48.268Z,102172.63
2023-04-27T12:04:15.015Z,102169.66
2023-04-27T12:06:42.035Z,102168.84
2023-04-27T12:09:08.800Z,102160.81
2023-04-27T12:11:37.304Z,102163.91
2023-04-27T12:14:03.913Z,102163.88
2023-04-27T12:16:30.347Z,102165.59
2023-04-27T12:18:56.864Z,102163.09
2023-04-27T12:21:23.720Z,102175.91
2023-04-27T12:23:50.069Z,102171.84
2023-04-27T12:26:16.438Z,102154.59
2023-04-27T12:28:43.086Z,102156.94
2023-04-27T12:31:16.345Z,102154.72
2023-04-27T12:33:44.220Z,102150.63
2023-04-27T12:36:10.574Z,102146.03
2023-04-27T12:38:37.113Z,102138.47
2023-04-27T12:41:03.495Z,102143.69
2023-04-27T12:43:29.892Z,102138.38
2023-04-27T12:45:56.253Z,102127.19
2023-04-27T12:48:23.463Z,102128.94
2023-04-27T12:50:50.154Z,102126.97
2023-04-27T12:53:16.775Z,102128.91
2023-04-27T12:55:43.194Z,102127.00
2023-04-27T12:58:09.754Z,102130.00
2023-04-27T13:00:36.086Z,102123.25
2023-04-27T13:03:02.702Z,102127.28
2023-04-27T13:05:32.183Z,102127.59
2023-04-27T13:07:58.956Z,102122.31
2023-04-27T13:10:29.045Z,102121.28
2023-04-27T13:12:55.468Z,102111.34
2023-04-27T13:15:21.948Z,102122.88
2023-04-27T13:17:48.488Z,102117.25
2023-04-27T13:20:15.436Z,102119.28
2023-04-27T13:22:42.251Z,102109.31
2023-04-27T13:25:09.651Z,102107.31
2023-04-27T13:27:36.787Z,102111.66
2023-04-27T13:30:05.346Z,102096.84
2023-04-27T13:32:31.887Z,102096.31
2023-04-27T13:34:58.518Z,102097.09
2023-04-27T13:37:25.432Z,102085.47
2023-04-27T13:39:51.760Z,102083.03
2023-04-27T13:42:18.242Z,102086.53
2023-04-27T13:44:44.595Z,102079.97
2023-04-27T13:47:11.082Z,102077.22
2023-04-27T13:49:37.591Z,102077.47
2023-04-27T13:52:03.956Z,102067.66
2023-04-27T13:54:30.373Z,102072.44
2023-04-27T13:56:57.799Z,102070.06
2023-04-27T13:59:24.289Z,102065.44
2023-04-27T14:01:50.814Z,102068.72
2023-04-27T14:04:17.255Z,102061.13
2023-04-27T14:06:45.718Z,102067.53
2023-04-27T14:09:12.164Z,102060.47
2023-04-27T14:11:52.436Z,102050.53
2023-04-27T14:14:22.684Z,102047.41
2023-04-27T14:16:50.998Z,102053.28
2023-04-27T14:19:18.563Z,102048.28
2023-04-27T14:21:44.921Z,102052.69
2023-04-27T14:24:11.250Z,102045.25
2023-04-27T14:26:37.552Z,102039.22
2023-04-27T14:29:03.913Z,102043.63
2023-04-27T14:31:30.681Z,102032.69
2023-04-27T14:33:57.091Z,102034.28
2023-04-27T14:36:23.446Z,102029.50
2023-04-27T14:38:49.763Z,102019.72
2023-04-27T14:41:16.133Z,102025.09
2023-04-27T14:43:44.660Z,102030.19
2023-04-27T14:46:20.274Z,102019.66
2023-04-27T14:48:48.073Z,102022.09
2023-04-27T14:51:15.374Z,102026.41
2023-04-27T14:53:42.427Z,102024.06
2023-04-27T14:56:08.765Z,102013.84
2023-04-27T14:58:35.078Z,102004.38
2023-04-27T15:01:01.622Z,101997.63
2023-04-27T15:03:30.141Z,102000.09
2023-04-27T15:06:00.435Z,102005.88
2023-04-27T15:08:26.928Z,102001.88
2023-04-27T15:10:59.492Z,102001.47
2023-04-27T15:13:26.639Z,101995.13
2023-04-27T15:15:57.310Z,102001.81
2023-04-27T15:18:24.651Z,101994.09
2023-04-27T15:20:55.589Z,101996.91
2023-04-27T15:23:23.762Z,101997.94
2023-04-27T15:25:52.002Z,101995.53
2023-04-27T15:28:18.514Z,101985.25
2023-04-27T15:30:45.340Z,101982.78
2023-04-27T15:33:12.991Z,101982.28
2023-04-27T15:35:40.407Z,101982.97
2023-04-27T15:38:08.327Z,101987.28
2023-04-27T15:40:35.471Z,101977.44
2023-04-27T15:43:02.795Z,101979.16
2023-04-27T15:45:29.728Z,101977.47
2023-04-27T15:47:56.342Z,101973.47
2023-04-27T15:50:22.885Z,101970.53
2023-04-27T15:52:49.591Z,101959.84
2023-04-27T15:55:16.496Z,101958.38
2023-04-27T15:57:42.848Z,101949.78
2023-04-27T16:00:13.163Z,101950.84
2023-04-27T16:02:40.192Z,101954.88
2023-04-27T16:05:07.815Z,101948.44
2023-04-27T16:07:36.233Z,101950.97
2023-04-27T16:10:04.091Z,101946.91
2023-04-27T16:12:30.830Z,101944.75
2023-04-27T16:14:57.374Z,101944.28
2023-04-27T16:17:25.098Z,101945.03
2023-04-27T16:19:51.594Z,101938.47
2023-04-27T16:22:18.041Z,101929.03
2023-04-27T16:24:44.608Z,101933.28
2023-04-27T16:27:11.535Z,101928.16
2023-04-27T16:29:37.885Z,101919.41
2023-04-27T16:32:04.332Z,101920.97
2023-04-27T16:34:30.724Z,101924.78
2023-04-27T16:36:57.100Z,101919.91
2023-04-27T16:39:23.920Z,101929.81
2023-04-27T16:41:51.004Z,101921.00
2023-04-27T16:44:17.434Z,101913.59
2023-04-27T16:46:43.878Z,101914.22
2023-04-27T16:49:10.308Z,101901.03
2023-04-27T16:51:36.714Z,101888.28
2023-04-27T16:54:03.508Z,101885.63
2023-04-27T16:56:34.918Z,101874.31
2023-04-27T16:59:01.314Z,101876.19
2023-04-27T17:01:29.770Z,101882.78
2023-04-27T17:03:57.683Z,101890.03
2023-04-27T17:06:26.553Z,101888.31
2023-04-27T17:08:52.923Z,101881.22
2023-04-27T17:11:19.325Z,101879.16
2023-04-27T17:13:46.837Z,101873.81
2023-04-27T17:16:13.529Z,101890.50
2023-04-27T17:18:40.006Z,101896.44
2023-04-27T17:21:06.433Z,101894.69
2023-04-27T17:23:33.810Z,101894.56
2023-04-27T17:26:00.348Z,101898.47
2023-04-27T17:28:26.739Z,101905.53
2023-04-27T17:30:53.264Z,101899.84
2023-04-27T17:33:19.576Z,101890.22
2023-04-27T17:35:47.237Z,101895.84
2023-04-27T17:38:14.163Z,101894.88
2023-04-27T17:40:40.852Z,101889.97
2023-04-27T17:43:08.029Z,101888.69
2023-04-27T17:45:34.485Z,101887.56
2023-04-27T17:48:01.276Z,101893.81
2023-04-27T17:50:29.318Z,101892.38
2023-04-27T17:52:55.862Z,101892.97
2023-04-27T17:55:22.874Z,101892.03
2023-04-27T17:57:49.854Z,101888.69
2023-04-27T18:00:18.154Z,101892.28
2023-04-27T18:02:46.145Z,101895.06
2023-04-27T18:05:12.557Z,101883.25
2023-04-27T18:07:38.959Z,101879.31
2023-04-27T18:10:06.185Z,101874.09
2023-04-27T18:12:32.713Z,101869.50
2023-04-27T18:15:01.044Z,101873.38
2023-04-27T18:17:29.284Z,101873.00
2023-04-27T18:20:07.558Z,101862.50
2023-04-27T18:22:36.232Z,101875.44
2023-04-27T18:25:02.622Z,101871.91
2023-04-27T18:27:28.977Z,101873.09
2023-04-27T18:29:55.777Z,101875.88
2023-04-27T18:32:23.028Z,101871.44
2023-04-27T18:34:49.647Z,101885.66
2023-04-27T18:37:16.239Z,101882.00
2023-04-27T18:39:42.589Z,101887.75
2023-04-27T18:42:08.897Z,101882.53
2023-04-27T18:44:36.327Z,101881.53
2023-04-27T18:47:03.365Z,101885.91
2023-04-27T18:49:29.738Z,101890.25
2023-04-27T18:51:56.101Z,101881.00
2023-04-27T18:54:22.643Z,101875.16
2023-04-27T18:56:52.848Z,101879.78
2023-04-27T18:59:20.176Z,101881.97
2023-04-27T19:01:46.696Z,101875.34
2023-04-27T19:04:13.409Z,101879.72
2023-04-27T19:06:41.971Z,101875.75
2023-04-27T19:09:11.160Z,101877.44
2023-04-27T19:11:37.479Z,101874.06
2023-04-27T19:14:03.871Z,101870.44
2023-04-27T19:16:30.505Z,101874.47
2023-04-27T19:18:56.974Z,101876.97
2023-04-27T19:21:23.414Z,101865.00
2023-04-27T19:23:49.731Z,101873.31
2023-04-27T19:26:16.120Z,101866.97
2023-04-27T19:28:42.620Z,101868.38
2023-04-27T19:31:09.888Z,101862.84
2023-04-27T19:33:36.506Z,101860.47
2023-04-27T19:36:02.870Z,101851.50
2023-04-27T19:38:29.434Z,101859.78
2023-04-27T19:40:55.765Z,101856.91
2023-04-27T19:43:22.219Z,101862.53
2023-04-27T19:45:51.539Z,101864.97
2023-04-27T19:48:17.975Z,101864.00
2023-04-27T19:50:44.345Z,101856.31
2023-04-27T19:53:11.094Z,101863.00
2023-04-27T19:55:37.742Z,101859.06
2023-04-27T19:58:04.156Z,101855.91
2023-04-27T20:00:30.624Z,101851.97
2023-04-27T20:02:57.151Z,101854.13
2023-04-27T20:05:23.877Z,101856.88
2023-04-27T20:07:50.379Z,101846.03
2023-04-27T20:10:16.857Z,101845.53
2023-04-27T20:12:55.148Z,101848.78
2023-04-27T20:15:22.874Z,101844.81
2023-04-27T20:17:49.316Z,101843.56
2023-04-27T20:20:15.812Z,101839.28
2023-04-27T20:22:42.210Z,101832.19
2023-04-27T20:25:08.916Z,101828.22
2023-04-27T20:27:37.133Z,101829.31
2023-04-27T20:30:04.202Z,101822.72
2023-04-27T20:32:30.547Z,101817.97
2023-04-27T20:34:56.930Z,101811.38
2023-04-27T20:37:24.665Z,101817.00
2023-04-27T20:39:52.065Z,101816.19
2023-04-27T20:42:18.680Z,101815.69
2023-04-27T20:44:48.418Z,101806.72
2023-04-27T20:47:15.123Z,101809.19
2023-04-27T20:49:46.068Z,101804.94
2023-04-27T20:52:12.481Z,101796.16
2023-04-27T20:54:39.638Z,101796.47
2023-04-27T20:57:10.808Z,101786.13
2023-04-27T20:59:37.134Z,101789.34
2023-04-27T21:02:03.511Z,101788.56
2023-04-27T21:04:30.009Z,101787.78
2023-04-27T21:06:56.461Z,101778.53
2023-04-27T21:09:22.829Z,101774.09
2023-04-27T21:11:49.226Z,101778.91
2023-04-27T21:14:15.867Z,101780.56
2023-04-27T21:16:42.409Z,101768.94
2023-04-27T21:19:09.811Z,101771.59
2023-04-27T21:21:36.501Z,101755.72
2023-04-27T21:24:08.202Z,101757.13
2023-04-27T21:26:34.979Z,101751.28
2023-04-27T21:29:01.502Z,101739.88
2023-04-27T21:31:28.013Z,101742.81
2023-04-27T21:33:54.404Z,101742.81
2023-04-27T21:36:20.998Z,101742.53
2023-04-27T21:38:47.481Z,101742.03
2023-04-27T21:41:14.402Z,101737.53
2023-04-27T21:43:41.999Z,101730.41
2023-04-27T21:46:09.211Z,101727.28
2023-04-27T21:48:35.749Z,101723.13
2023-04-27T21:51:02.085Z,101720.25
2023-04-27T21:53:30.554Z,101711.00
2023-04-27T21:55:56.968Z,101705.69
2023-04-27T21:58:23.326Z,101695.34
2023-04-27T22:00:49.729Z,101693.47
2023-04-27T22:03:16.181Z,101687.69
2023-04-27T22:05:42.683Z,101687.69
2023-04-27T22:08:09.518Z,101680.78
2023-04-27T22:10:36.285Z,101683.44
2023-04-27T22:13:14.702Z,101686.09
2023-04-27T22:15:44.689Z,101670.25
2023-04-27T22:18:11.174Z,101675.84
2023-04-27T22:20:38.567Z,101686.25
2023-04-27T22:23:04.930Z,101678.59
2023-04-27T22:25:31.518Z,101675.16
2023-04-27T22:27:58.030Z,101669.84
2023-04-27T22:30:24.564Z,101666.88
2023-04-27T22:32:51.139Z,101660.78
2023-04-27T22:35:26.532Z,101668.47
2023-04-27T22:37:55.176Z,101663.44
2023-04-27T22:40:21.700Z,101656.56
2023-04-27T22:42:48.028Z,101652.84
2023-04-27T22:45:14.514Z,101644.28
2023-04-27T22:47:41.309Z,101641.63
2023-04-27T22:50:08.380Z,101638.47
2023-04-27T22:52:34.822Z,101637.41
2023-04-27T22:55:02.051Z,101632.09
2023-04-27T22:57:28.810Z,101633.16
2023-04-27T22:59:55.189Z,101630.22
2023-04-27T23:02:21.611Z,101633.78
2023-04-27T23:04:48.333Z,101632.16
2023-04-27T23:07:18.389Z,101637.47
2023-04-27T23:09:45.672Z,101637.78
2023-04-27T23:12:12.032Z,101635.41
2023-04-27T23:14:39.909Z,101640.72
2023-04-27T23:17:07.363Z,101628.81
2023-04-27T23:19:34.413Z,101634.13
2023-04-27T23:22:01.750Z,101633.31
2023-04-27T23:24:29.382Z,101624.56
2023-04-27T23:26:55.961Z,101625.44
2023-04-27T23:29:22.305Z,101624.66
2023-04-27T23:31:48.682Z,101617.78
2023-04-27T23:34:15.537Z,101609.34
2023-04-27T23:36:42.127Z,101604.28
2023-04-27T23:39:08.625Z,101591.63
2023-04-27T23:41:34.944Z,101592.41
2023-04-27T23:44:01.287Z,101574.13
2023-04-27T23:46:27.952Z,101574.13
2023-04-27T23:48:54.305Z,101563.59
2023-04-27T23:51:20.760Z,101562.03
2023-04-27T23:53:47.069Z,101562.59
2023-04-27T23:56:19.812Z,101558.44
2023-04-27T23:58:46.238Z,101554.22
